createdAt,value
2023-04-28T00:03:18.750Z,99279.41
2023-04-28T00:08:23.517Z,99270.63
2023-04-28T00:13:28.421Z,99262.50
2023-04-28T00:18:33.226Z,99260.94
2023-04-28T00:23:36.377Z,99259.63
2023-04-28T00:28:40.630Z,99256.03
2023-04-28T00:33:44.358Z,99242.94
2023-04-28T00:38:47.287Z,99233.88
2023-04-28T00:43:52.027Z,99220.56
2023-04-28T00:48:55.208Z,99217.16
2023-04-28T00:53:58.785Z,99215.69
2023-04-28T00:59:03.807Z,99211.34
2023-04-28T01:04:07.015Z,99199.66
2023-04-28T01:09:11.474Z,99202.91
2023-04-28T01:14:16.081Z,99188.47
2023-04-28T01:19:22.713Z,99187.97
2023-04-28T01:24:28.706Z,99188.28
2023-04-28T01:29:36.296Z,99175.16
2023-04-28T01:34:39.485Z,99174.41
2023-04-28T01:39:44.237Z,99173.09
2023-04-28T01:44:47.109Z,99166.47
2023-04-28T01:49:50.427Z,99164.34
2023-04-28T01:54:54.961Z,99160.44
2023-04-28T01:59:59.613Z,99149.94
2023-04-28T02:05:02.807Z,99153.34
2023-04-28T02:10:08.428Z,99153.38
2023-04-28T02:15:12.059Z,99148.97
2023-04-28T02:20:15.437Z,99136.84
2023-04-28T02:25:19.857Z,99141.03
2023-04-28T02:30:22.866Z,99131.03
2023-04-28T02:35:25.855Z,99132.47
2023-04-28T02:40:30.292Z,99126.63
2023-04-28T02:45:34.033Z,99118.06
2023-04-28T02:50:37.186Z,99109.78
2023-04-28T02:55:41.431Z,99106.22
2023-04-28T03:00:44.608Z,99112.19
2023-04-28T03:05:47.623Z,99106.50
2023-04-28T03:10:53.799Z,99107.13
2023-04-28T03:15:57.044Z,99085.41
2023-04-28T03:21:00.065Z,99079.44
2023-04-28T03:26:05.785Z,99072.13
2023-04-28T03:31:08.731Z,99069.38
2023-04-28T03:36:11.618Z,99078.13
2023-04-28T03:41:15.959Z,99067.13
2023-04-28T03:46:40.781Z,99074.88
2023-04-28T03:51:43.721Z,99077.47
2023-04-28T03:56:48.764Z,99071.25
2023-04-28T04:01:52.185Z,99069.47
2023-04-28T04:06:55.230Z,99052.50
2023-04-28T04:12:01.150Z,99056.44
2023-04-28T04:17:04.154Z,99048.34
2023-04-28T04:22:07.488Z,99035.25
2023-04-28T04:27:12.224Z,99025.34
2023-04-28T04:32:17.269Z,99026.38
2023-04-28T04:37:20.446Z,99019.13
2023-04-28T04:42:35.718Z,99018.81
2023-04-28T04:47:49.460Z,99011.06
2023-04-28T04:52:54.555Z,99020.56
2023-04-28T04:57:58.930Z,99010.41
2023-04-28T05:03:02.059Z,99008.19
2023-04-28T05:08:05.960Z,99005.78
2023-04-28T05:13:10.725Z,98995.66
2023-04-28T05:18:15.113Z,98999.19
2023-04-28T05:23:18.124Z,98990.69
2023-04-28T05:28:22.695Z,98982.53
2023-04-28T05:33:29.337Z,98968.53
2023-04-28T05:38:33.876Z,98967.84
2023-04-28T05:43:38.226Z,98966.13
2023-04-28T05:48:41.168Z,98965.91
2023-04-28T05:53:44.189Z,98965.50
2023-04-28T05:58:50.554Z,98959.19
2023-04-28T06:03:56.645Z,98961.28
2023-04-28T06:09:00.487Z,98962.03
2023-04-28T06:14:04.844Z,98964.00
2023-04-28T06:19:07.962Z,98968.19
2023-04-28T06:24:11.508Z,98959.53
2023-04-28T06:29:17.241Z,98950.63
2023-04-28T06:34:20.146Z,98947.59
2023-04-28T06:39:23.497Z,98944.06
2023-04-28T06:44:27.750Z,98946.09
2023-04-28T06:49:32.190Z,98945.13
2023-04-28T06:54:37.477Z,98937.94
2023-04-28T06:59:46.333Z,98934.41
2023-04-28T07:04:49.370Z,98933.81
2023-04-28T07:09:53.542Z,98922.69
2023-04-28T07:14:57.864Z,98915.69
2023-04-28T07:20:01.051Z,98911.59
2023-04-28T07:25:04.665Z,98912.31
2023-04-28T07:30:26.060Z,98904.19
2023-04-28T07:35:30.817Z,98900.75
2023-04-28T07:40:33.792Z,98892.63
2023-04-28T07:45:40.004Z,98884.47
2023-04-28T07:50:43.105Z,98881.44
2023-04-28T07:55:46.193Z,98882.78
2023-04-28T08:00:50.610Z,98876.31
2023-04-28T08:05:53.524Z,98867.00
2023-04-28T08:10:57.235Z,98858.81
2023-04-28T08:16:01.710Z,98855.63
2023-04-28T08:21:04.807Z,98852.72
2023-04-28T08:26:07.714Z,98857.84
2023-04-28T08:31:12.076Z,98859.81
2023-04-28T08:36:15.697Z,98870.38
2023-04-28T08:41:19.581Z,98869.19
2023-04-28T08:46:27.005Z,98858.63
2023-04-28T08:51:35.936Z,98850.56
2023-04-28T08:56:39.714Z,98840.00
2023-04-28T09:01:43.999Z,98840.28
2023-04-28T09:06:47.297Z,98837.75
2023-04-28T09:11:52.681Z,98837.88
2023-04-28T09:16:57.149Z,98826.06
2023-04-28T09:22:02.141Z,98830.13
2023-04-28T09:27:12.340Z,98841.66
2023-04-28T09:32:18.670Z,98833.66
2023-04-28T09:37:23.297Z,98822.88
2023-04-28T09:42:33.522Z,98830.56
2023-04-28T09:47:39.323Z,98824.13
2023-04-28T09:52:44.263Z,98816.66
2023-04-28T09:57:50.824Z,98821.06
2023-04-28T10:02:55.584Z,98832.06
2023-04-28T10:08:00.312Z,98828.41
2023-04-28T10:13:04.118Z,98834.44
2023-04-28T10:18:10.276Z,98842.25
2023-04-28T10:23:32.482Z,98849.50
2023-04-28T10:28:35.673Z,98850.97
2023-04-28T10:33:40.534Z,98859.69
2023-04-28T10:39:16.855Z,98853.44
2023-04-28T10:44:44.860Z,98854.09
2023-04-28T10:50:09.497Z,98855.44
2023-04-28T10:55:30.618Z,98854.03
2023-04-28T11:00:33.554Z,98853.34
2023-04-28T11:05:37.790Z,98860.28
2023-04-28T11:11:20.689Z,98843.44
2023-04-28T11:16:25.827Z,98850.56
2023-04-28T11:21:30.249Z,98862.88
2023-04-28T11:26:39.105Z,98869.56
2023-04-28T11:31:44.212Z,98863.56
2023-04-28T11:36:48.742Z,98856.06
2023-04-28T11:41:51.762Z,98863.03
2023-04-28T11:46:57.426Z,98862.47
2023-04-28T11:52:07.751Z,98861.19
2023-04-28T11:57:18.603Z,98855.66
2023-04-28T12:02:29.794Z,98855.44
2023-04-28T12:07:43.765Z,98846.31
2023-04-28T12:17:53.459Z,98841.84
2023-04-28T12:22:57.832Z,98825.94
2023-04-28T12:28:02.721Z,98829.38
2023-04-28T12:33:06.088Z,98822.72
2023-04-28T12:38:13.966Z,98826.59
2023-04-28T12:43:16.900Z,98833.16
2023-04-28T12:48:20.007Z,98823.47
2023-04-28T12:53:24.250Z,98815.63
2023-04-28T12:58:27.169Z,98811.59
2023-04-28T13:03:30.304Z,98812.44
2023-04-28T13:08:35.343Z,98804.59
2023-04-28T13:13:38.961Z,98802.03
2023-04-28T13:18:41.859Z,98800.16
2023-04-28T13:23:46.318Z,98787.75
2023-04-28T13:28:49.327Z,98782.81
2023-04-28T13:33:52.408Z,98779.03
2023-04-28T13:38:56.992Z,98762.59
2023-04-28T13:43:59.845Z,98758.16
2023-04-28T13:49:02.792Z,98758.72
2023-04-28T13:54:08.854Z,98749.00
2023-04-28T13:59:12.102Z,98742.66
2023-04-28T14:04:15.293Z,98741.19
2023-04-28T14:09:20.317Z,98742.28
2023-04-28T14:14:23.401Z,98737.34
2023-04-28T14:19:27.104Z,98721.19
2023-04-28T14:24:31.409Z,98727.19
2023-04-28T14:29:34.396Z,98714.66
2023-04-28T14:34:37.288Z,98707.03
2023-04-28T14:39:41.545Z,98701.06
2023-04-28T14:44:45.840Z,98698.69
2023-04-28T14:49:49.100Z,98696.94
2023-04-28T14:54:54.134Z,98689.81
2023-04-28T14:59:57.254Z,98686.97
2023-04-28T15:05:00.399Z,98681.59
2023-04-28T15:10:04.949Z,98676.53
2023-04-28T15:15:08.961Z,98672.53
2023-04-28T15:20:12.363Z,98668.66
2023-04-28T15:25:16.616Z,98679.28
2023-04-28T15:30:20.260Z,98676.53
2023-04-28T15:35:23.194Z,98664.78
2023-04-28T15:40:28.521Z,98660.44
2023-04-28T15:45:31.752Z,98657.13
2023-04-28T15:50:34.792Z,98649.59
2023-04-28T15:55:39.247Z,98652.25
2023-04-28T16:00:42.313Z,98639.56
2023-04-28T16:05:45.658Z,98637.00
2023-04-28T16:10:50.397Z,98631.03
2023-04-28T16:15:53.493Z,98639.75
2023-04-28T16:20:56.522Z,98639.31
2023-04-28T16:26:00.836Z,98645.00
2023-04-28T16:31:03.760Z,98637.88
2023-04-28T16:36:06.711Z,98626.25
2023-04-28T16:41:11.056Z,98625.00
2023-04-28T16:46:14.156Z,98620.13
2023-04-28T16:51:17.171Z,98613.41
2023-04-28T16:56:21.836Z,98604.69
2023-04-28T17:01:24.849Z,98602.19
2023-04-28T17:06:28.015Z,98607.38
2023-04-28T17:11:32.601Z,98593.56
2023-04-28T17:16:36.098Z,98586.09
2023-04-28T17:21:39.092Z,98590.09
2023-04-28T17:26:43.342Z,98591.09
2023-04-28T17:31:46.501Z,98595.59
2023-04-28T17:36:49.507Z,98591.47
2023-04-28T17:41:54.392Z,98587.09
2023-04-28T17:46:57.475Z,98588.63
2023-04-28T17:52:00.899Z,98586.59
2023-04-28T17:57:05.565Z,98581.00
2023-04-28T18:02:10.174Z,98586.59
2023-04-28T18:07:13.188Z,98592.16
2023-04-28T18:12:17.814Z,98585.31
2023-04-28T18:17:20.883Z,98588.75
2023-04-28T18:22:23.796Z,98586.50
2023-04-28T18:27:28.199Z,98589.34
2023-04-28T18:32:31.942Z,98591.88
2023-04-28T18:37:34.954Z,98581.94
2023-04-28T18:42:39.431Z,98585.84
2023-04-28T18:47:43.077Z,98586.25
2023-04-28T18:52:46.824Z,98583.06
2023-04-28T18:57:51.247Z,98597.56
2023-04-28T19:02:54.361Z,98607.84
2023-04-28T19:07:57.353Z,98596.91
2023-04-28T19:13:01.608Z,98597.94
2023-04-28T19:18:05.713Z,98599.56
2023-04-28T19:23:08.696Z,98600.38
2023-04-28T19:28:12.936Z,98600.59
2023-04-28T19:33:16.227Z,98594.06
2023-04-28T19:38:19.580Z,98596.81
2023-04-28T19:43:23.830Z,98596.69
2023-04-28T19:48:27.217Z,98582.19
2023-04-28T19:53:30.117Z,98572.53
2023-04-28T19:58:34.509Z,98564.19
2023-04-28T20:03:37.622Z,98558.06
2023-04-28T20:08:40.694Z,98559.91
2023-04-28T20:13:44.961Z,98564.31
2023-04-28T20:18:47.948Z,98563.28
2023-04-28T20:23:50.904Z,98566.72
2023-04-28T20:28:55.503Z,98566.38
2023-04-28T20:33:58.550Z,98560.75
2023-04-28T20:39:01.398Z,98548.88
2023-04-28T20:44:06.626Z,98538.50
2023-04-28T20:49:10.907Z,98543.53
2023-04-28T20:54:14.189Z,98546.88
2023-04-28T20:59:18.480Z,98540.00
2023-04-28T21:04:22.357Z,98544.22
2023-04-28T21:09:25.643Z,98538.41
2023-04-28T21:14:29.941Z,98533.16
2023-04-28T21:19:33.231Z,98539.38
2023-04-28T21:24:36.187Z,98529.34
2023-04-28T21:29:40.480Z,98534.00
2023-04-28T21:34:43.333Z,98520.31
2023-04-28T21:39:46.279Z,98525.34
2023-04-28T21:44:50.568Z,98523.06
2023-04-28T21:49:53.676Z,98529.56
2023-04-28T21:54:56.717Z,98531.31
2023-04-28T22:00:01.599Z,98529.72
2023-04-28T22:05:05.471Z,98521.72
2023-04-28T22:10:10.005Z,98511.38
2023-04-28T22:15:14.437Z,98500.88
2023-04-28T22:20:17.513Z,98488.09
2023-04-28T22:25:20.451Z,98485.47
2023-04-28T22:30:26.197Z,98495.53
2023-04-28T22:35:29.368Z,98504.28
2023-04-28T22:40:32.278Z,98533.38
2023-04-28T22:45:36.574Z,98525.97
2023-04-28T22:50:40.573Z,98527.09
2023-04-28T22:55:43.841Z,98518.53
2023-04-28T23:00:49.466Z,98506.81
2023-04-28T23:05:52.378Z,98504.19
2023-04-28T23:10:56.507Z,98489.25
2023-04-28T23:16:01.188Z,98486.97
2023-04-28T23:21:04.213Z,98474.28
2023-04-28T23:26:07.102Z,98464.25
2023-04-28T23:31:12.342Z,98462.09
2023-04-28T23:36:15.244Z,98467.25
2023-04-28T23:41:18.124Z,98463.47
2023-04-28T23:46:22.724Z,98475.09
2023-04-28T23:51:26.232Z,98475.44
2023-04-28T23:56:29.190Z,98469.75
